sensor_id;sensor_type;location;lat;lon;timestamp;P1;durP1;ratioP1;P2;durP2;ratioP2
39094;SDS011;24840;47.508;19.376;2023-04-24T00:00:10;6.50;;;5.10;;
39094;SDS011;24840;47.508;19.376;2023-04-24T00:02:39;6.03;;;4.97;;
39094;SDS011;24840;47.508;19.376;2023-04-24T00:05:06;10.10;;;5.93;;
39094;SDS011;24840;47.508;19.376;2023-04-24T00:07:34;5.97;;;5.30;;
39094;SDS011;24840;47.508;19.376;2023-04-24T00:10:00;7.40;;;5.33;;
39094;SDS011;24840;47.508;19.376;2023-04-24T00:12:26;9.77;;;6.50;;
39094;SDS011;24840;47.508;19.376;2023-04-24T00:14:52;7.63;;;5.27;;
39094;SDS011;24840;47.508;19.376;2023-04-24T00:17:18;7.50;;;5.73;;
39094;SDS011;24840;47.508;19.376;2023-04-24T00:19:47;6.57;;;5.87;;
39094;SDS011;24840;47.508;19.376;2023-04-24T00:22:16;7.57;;;5.00;;
39094;SDS011;24840;47.508;19.376;2023-04-24T00:24:42;7.13;;;5.53;;
39094;SDS011;24840;47.508;19.376;2023-04-24T00:27:08;9.13;;;6.47;;
39094;SDS011;24840;47.508;19.376;2023-04-24T00:29:34;6.83;;;5.27;;
39094;SDS011;24840;47.508;19.376;2023-04-24T00:32:00;7.40;;;5.50;;
39094;SDS011;24840;47.508;19.376;2023-04-24T00:34:25;7.07;;;5.53;;
39094;SDS011;24840;47.508;19.376;2023-04-24T00:36:51;6.00;;;5.13;;
39094;SDS011;24840;47.508;19.376;2023-04-24T00:39:20;6.27;;;5.43;;
39094;SDS011;24840;47.508;19.376;2023-04-24T00:41:48;9.40;;;6.07;;
39094;SDS011;24840;47.508;19.376;2023-04-24T00:44:15;7.97;;;6.03;;
39094;SDS011;24840;47.508;19.376;2023-04-24T00:46:42;12.97;;;6.00;;
39094;SDS011;24840;47.508;19.376;2023-04-24T00:49:07;9.20;;;5.50;;
39094;SDS011;24840;47.508;19.376;2023-04-24T00:51:33;8.47;;;6.50;;
39094;SDS011;24840;47.508;19.376;2023-04-24T00:53:59;8.47;;;5.77;;
39094;SDS011;24840;47.508;19.376;2023-04-24T00:56:26;6.73;;;6.10;;
39094;SDS011;24840;47.508;19.376;2023-04-24T00:58:52;12.40;;;5.70;;
39094;SDS011;24840;47.508;19.376;2023-04-24T01:01:22;7.90;;;6.33;;
39094;SDS011;24840;47.508;19.376;2023-04-24T01:03:51;9.73;;;6.47;;
39094;SDS011;24840;47.508;19.376;2023-04-24T01:06:18;7.70;;;6.23;;
39094;SDS011;24840;47.508;19.376;2023-04-24T01:08:45;8.80;;;7.47;;
39094;SDS011;24840;47.508;19.376;2023-04-24T01:11:12;7.77;;;6.93;;
39094;SDS011;24840;47.508;19.376;2023-04-24T01:13:38;10.20;;;6.93;;
39094;SDS011;24840;47.508;19.376;2023-04-24T01:16:04;8.67;;;5.97;;
39094;SDS011;24840;47.508;19.376;2023-04-24T01:18:30;9.27;;;6.40;;
39094;SDS011;24840;47.508;19.376;2023-04-24T01:20:59;8.77;;;5.53;;
39094;SDS011;24840;47.508;19.376;2023-04-24T01:23:28;10.33;;;6.47;;
39094;SDS011;24840;47.508;19.376;2023-04-24T01:25:54;7.37;;;6.63;;
39094;SDS011;24840;47.508;19.376;2023-04-24T01:28:20;8.83;;;6.53;;
39094;SDS011;24840;47.508;19.376;2023-04-24T01:30:47;8.57;;;6.57;;
39094;SDS011;24840;47.508;19.376;2023-04-24T01:33:13;9.50;;;7.20;;
39094;SDS011;24840;47.508;19.376;2023-04-24T01:35:39;10.17;;;7.33;;
39094;SDS011;24840;47.508;19.376;2023-04-24T01:38:05;7.87;;;6.60;;
39094;SDS011;24840;47.508;19.376;2023-04-24T01:40:31;8.73;;;7.37;;
39094;SDS011;24840;47.508;19.376;2023-04-24T01:42:57;10.77;;;7.93;;
39094;SDS011;24840;47.508;19.376;2023-04-24T01:45:24;11.77;;;8.20;;
39094;SDS011;24840;47.508;19.376;2023-04-24T01:47:50;11.50;;;7.57;;
39094;SDS011;24840;47.508;19.376;2023-04-24T01:50:15;11.60;;;7.60;;
39094;SDS011;24840;47.508;19.376;2023-04-24T01:52:42;10.87;;;7.57;;
39094;SDS011;24840;47.508;19.376;2023-04-24T01:55:08;10.23;;;8.33;;
39094;SDS011;24840;47.508;19.376;2023-04-24T01:57:35;8.70;;;7.17;;
39094;SDS011;24840;47.508;19.376;2023-04-24T02:00:01;8.50;;;6.57;;
39094;SDS011;24840;47.508;19.376;2023-04-24T02:02:31;10.47;;;7.10;;
39094;SDS011;24840;47.508;19.376;2023-04-24T02:04:57;9.63;;;7.23;;
39094;SDS011;24840;47.508;19.376;2023-04-24T02:07:23;10.73;;;6.70;;
39094;SDS011;24840;47.508;19.376;2023-04-24T02:09:49;10.33;;;7.23;;
39094;SDS011;24840;47.508;19.376;2023-04-24T02:12:15;10.47;;;7.30;;
39094;SDS011;24840;47.508;19.376;2023-04-24T02:14:42;9.03;;;6.90;;
39094;SDS011;24840;47.508;19.376;2023-04-24T02:17:08;11.47;;;7.00;;
39094;SDS011;24840;47.508;19.376;2023-04-24T02:19:34;9.13;;;6.77;;
39094;SDS011;24840;47.508;19.376;2023-04-24T02:22:00;9.67;;;6.83;;
39094;SDS011;24840;47.508;19.376;2023-04-24T02:24:26;8.73;;;6.77;;
39094;SDS011;24840;47.508;19.376;2023-04-24T02:26:51;12.63;;;8.33;;
39094;SDS011;24840;47.508;19.376;2023-04-24T02:29:17;11.37;;;7.67;;
39094;SDS011;24840;47.508;19.376;2023-04-24T02:31:43;11.50;;;8.03;;
39094;SDS011;24840;47.508;19.376;2023-04-24T02:34:09;12.63;;;8.10;;
39094;SDS011;24840;47.508;19.376;2023-04-24T02:36:35;11.00;;;8.47;;
39094;SDS011;24840;47.508;19.376;2023-04-24T02:39:01;8.13;;;6.50;;
39094;SDS011;24840;47.508;19.376;2023-04-24T02:41:26;9.57;;;7.47;;
39094;SDS011;24840;47.508;19.376;2023-04-24T02:43:57;11.73;;;8.07;;
39094;SDS011;24840;47.508;19.376;2023-04-24T02:46:23;10.17;;;8.00;;
39094;SDS011;24840;47.508;19.376;2023-04-24T02:48:49;7.63;;;6.83;;
39094;SDS011;24840;47.508;19.376;2023-04-24T02:51:14;10.83;;;8.07;;
39094;SDS011;24840;47.508;19.376;2023-04-24T02:53:40;8.50;;;7.43;;
39094;SDS011;24840;47.508;19.376;2023-04-24T02:56:06;11.53;;;8.93;;
39094;SDS011;24840;47.508;19.376;2023-04-24T02:58:32;10.87;;;9.03;;
39094;SDS011;24840;47.508;19.376;2023-04-24T03:00:57;13.00;;;8.47;;
39094;SDS011;24840;47.508;19.376;2023-04-24T03:03:23;11.20;;;8.57;;
39094;SDS011;24840;47.508;19.376;2023-04-24T03:05:49;10.43;;;8.70;;
39094;SDS011;24840;47.508;19.376;2023-04-24T03:08:15;11.07;;;8.97;;
39094;SDS011;24840;47.508;19.376;2023-04-24T03:10:41;12.13;;;9.60;;
39094;SDS011;24840;47.508;19.376;2023-04-24T03:13:06;12.00;;;9.20;;
39094;SDS011;24840;47.508;19.376;2023-04-24T03:15:32;10.40;;;9.00;;
39094;SDS011;24840;47.508;19.376;2023-04-24T03:17:58;11.67;;;8.73;;
39094;SDS011;24840;47.508;19.376;2023-04-24T03:20:25;12.33;;;10.00;;
39094;SDS011;24840;47.508;19.376;2023-04-24T03:22:51;14.97;;;10.63;;
39094;SDS011;24840;47.508;19.376;2023-04-24T03:25:17;11.47;;;10.37;;
39094;SDS011;24840;47.508;19.376;2023-04-24T03:27:42;12.67;;;9.90;;
39094;SDS011;24840;47.508;19.376;2023-04-24T03:30:08;15.13;;;9.63;;
39094;SDS011;24840;47.508;19.376;2023-04-24T03:32:34;12.40;;;9.60;;
39094;SDS011;24840;47.508;19.376;2023-04-24T03:35:00;12.07;;;10.77;;
39094;SDS011;24840;47.508;19.376;2023-04-24T03:37:26;11.60;;;9.47;;
39094;SDS011;24840;47.508;19.376;2023-04-24T03:39:51;10.80;;;9.70;;
39094;SDS011;24840;47.508;19.376;2023-04-24T03:42:17;11.03;;;9.23;;
39094;SDS011;24840;47.508;19.376;2023-04-24T03:44:43;11.20;;;10.03;;
39094;SDS011;24840;47.508;19.376;2023-04-24T03:47:09;12.30;;;10.30;;
39094;SDS011;24840;47.508;19.376;2023-04-24T03:49:35;13.37;;;10.00;;
39094;SDS011;24840;47.508;19.376;2023-04-24T03:52:00;9.70;;;8.80;;
39094;SDS011;24840;47.508;19.376;2023-04-24T03:54:26;15.57;;;9.20;;
39094;SDS011;24840;47.508;19.376;2023-04-24T03:56:52;11.63;;;10.43;;
39094;SDS011;24840;47.508;19.376;2023-04-24T03:59:18;10.60;;;9.10;;
39094;SDS011;24840;47.508;19.376;2023-04-24T04:01:44;14.15;;;9.32;;
39094;SDS011;24840;47.508;19.376;2023-04-24T04:04:10;12.57;;;11.30;;
39094;SDS011;24840;47.508;19.376;2023-04-24T04:06:36;14.48;;;11.50;;
39094;SDS011;24840;47.508;19.376;2023-04-24T04:09:02;14.02;;;11.10;;
39094;SDS011;24840;47.508;19.376;2023-04-24T04:11:28;14.32;;;12.00;;
39094;SDS011;24840;47.508;19.376;2023-04-24T04:13:55;13.87;;;11.43;;
39094;SDS011;24840;47.508;19.376;2023-04-24T04:16:21;11.95;;;9.93;;
39094;SDS011;24840;47.508;19.376;2023-04-24T04:18:47;14.20;;;11.70;;
39094;SDS011;24840;47.508;19.376;2023-04-24T04:21:14;12.88;;;11.13;;
39094;SDS011;24840;47.508;19.376;2023-04-24T04:23:39;12.13;;;10.77;;
39094;SDS011;24840;47.508;19.376;2023-04-24T04:26:05;11.13;;;9.98;;
39094;SDS011;24840;47.508;19.376;2023-04-24T04:28:31;13.23;;;10.93;;
39094;SDS011;24840;47.508;19.376;2023-04-24T04:30:57;12.18;;;10.45;;
39094;SDS011;24840;47.508;19.376;2023-04-24T04:33:23;15.63;;;12.03;;
39094;SDS011;24840;47.508;19.376;2023-04-24T04:35:50;16.20;;;11.88;;
39094;SDS011;24840;47.508;19.376;2023-04-24T04:38:21;14.00;;;11.63;;
39094;SDS011;24840;47.508;19.376;2023-04-24T04:40:47;14.07;;;11.23;;
39094;SDS011;24840;47.508;19.376;2023-04-24T04:43:13;12.60;;;11.33;;
39094;SDS011;24840;47.508;19.376;2023-04-24T04:45:42;14.70;;;13.25;;
39094;SDS011;24840;47.508;19.376;2023-04-24T04:48:08;16.50;;;13.75;;
39094;SDS011;24840;47.508;19.376;2023-04-24T04:50:34;15.45;;;13.65;;
39094;SDS011;24840;47.508;19.376;2023-04-24T04:53:00;19.65;;;17.85;;
39094;SDS011;24840;47.508;19.376;2023-04-24T04:55:26;16.60;;;15.00;;
39094;SDS011;24840;47.508;19.376;2023-04-24T04:57:52;16.60;;;14.98;;
39094;SDS011;24840;47.508;19.376;2023-04-24T05:00:18;12.88;;;11.57;;
39094;SDS011;24840;47.508;19.376;2023-04-24T05:02:44;15.20;;;13.68;;
39094;SDS011;24840;47.508;19.376;2023-04-24T05:05:10;15.10;;;13.52;;
39094;SDS011;24840;47.508;19.376;2023-04-24T05:07:35;25.17;;;14.45;;
39094;SDS011;24840;47.508;19.376;2023-04-24T05:10:01;16.23;;;12.52;;
39094;SDS011;24840;47.508;19.376;2023-04-24T05:12:27;16.98;;;13.27;;
39094;SDS011;24840;47.508;19.376;2023-04-24T05:14:53;15.43;;;12.25;;
39094;SDS011;24840;47.508;19.376;2023-04-24T05:17:19;16.92;;;14.88;;
39094;SDS011;24840;47.508;19.376;2023-04-24T05:19:45;13.88;;;11.73;;
39094;SDS011;24840;47.508;19.376;2023-04-24T05:22:11;14.82;;;12.95;;
39094;SDS011;24840;47.508;19.376;2023-04-24T05:24:37;16.30;;;11.55;;
39094;SDS011;24840;47.508;19.376;2023-04-24T05:27:03;15.27;;;11.98;;
39094;SDS011;24840;47.508;19.376;2023-04-24T05:29:32;12.93;;;11.60;;
39094;SDS011;24840;47.508;19.376;2023-04-24T05:31:58;14.55;;;12.50;;
39094;SDS011;24840;47.508;19.376;2023-04-24T05:34:25;11.90;;;10.65;;
39094;SDS011;24840;47.508;19.376;2023-04-24T05:36:51;13.52;;;9.55;;
39094;SDS011;24840;47.508;19.376;2023-04-24T05:39:16;12.73;;;10.05;;
39094;SDS011;24840;47.508;19.376;2023-04-24T05:41:42;10.65;;;9.63;;
39094;SDS011;24840;47.508;19.376;2023-04-24T05:44:08;18.42;;;10.45;;
39094;SDS011;24840;47.508;19.376;2023-04-24T05:46:34;15.82;;;10.65;;
39094;SDS011;24840;47.508;19.376;2023-04-24T05:49:00;14.43;;;10.77;;
39094;SDS011;24840;47.508;19.376;2023-04-24T05:51:27;13.98;;;10.35;;
39094;SDS011;24840;47.508;19.376;2023-04-24T05:53:52;15.65;;;10.68;;
39094;SDS011;24840;47.508;19.376;2023-04-24T05:56:18;12.25;;;9.07;;
39094;SDS011;24840;47.508;19.376;2023-04-24T05:58:45;11.52;;;9.95;;
39094;SDS011;24840;47.508;19.376;2023-04-24T06:01:12;10.85;;;9.75;;
39094;SDS011;24840;47.508;19.376;2023-04-24T06:03:39;13.98;;;9.38;;
39094;SDS011;24840;47.508;19.376;2023-04-24T06:06:06;14.25;;;10.88;;
39094;SDS011;24840;47.508;19.376;2023-04-24T06:08:32;13.98;;;11.07;;
39094;SDS011;24840;47.508;19.376;2023-04-24T06:10:58;13.43;;;9.35;;
39094;SDS011;24840;47.508;19.376;2023-04-24T06:13:24;10.40;;;9.23;;
39094;SDS011;24840;47.508;19.376;2023-04-24T06:15:50;10.35;;;9.30;;
39094;SDS011;24840;47.508;19.376;2023-04-24T06:18:16;11.73;;;8.80;;
39094;SDS011;24840;47.508;19.376;2023-04-24T06:20:42;12.60;;;10.05;;
39094;SDS011;24840;47.508;19.376;2023-04-24T06:23:08;11.32;;;8.43;;
39094;SDS011;24840;47.508;19.376;2023-04-24T06:25:34;13.48;;;9.50;;
39094;SDS011;24840;47.508;19.376;2023-04-24T06:28:00;10.70;;;8.80;;
39094;SDS011;24840;47.508;19.376;2023-04-24T06:30:26;27.27;;;10.52;;
39094;SDS011;24840;47.508;19.376;2023-04-24T06:32:53;23.33;;;10.23;;
39094;SDS011;24840;47.508;19.376;2023-04-24T06:35:18;17.50;;;9.85;;
39094;SDS011;24840;47.508;19.376;2023-04-24T06:37:44;367.25;;;38.72;;
39094;SDS011;24840;47.508;19.376;2023-04-24T06:40:10;23.10;;;10.10;;
39094;SDS011;24840;47.508;19.376;2023-04-24T06:42:36;23.48;;;11.13;;
39094;SDS011;24840;47.508;19.376;2023-04-24T06:45:02;45.85;;;11.15;;
39094;SDS011;24840;47.508;19.376;2023-04-24T06:47:29;11.70;;;8.27;;
39094;SDS011;24840;47.508;19.376;2023-04-24T06:49:55;9.38;;;8.48;;
39094;SDS011;24840;47.508;19.376;2023-04-24T06:52:20;9.27;;;8.27;;
39094;SDS011;24840;47.508;19.376;2023-04-24T06:54:46;9.85;;;8.45;;
39094;SDS011;24840;47.508;19.376;2023-04-24T06:57:12;7.35;;;6.68;;
39094;SDS011;24840;47.508;19.376;2023-04-24T06:59:38;11.80;;;7.88;;
39094;SDS011;24840;47.508;19.376;2023-04-24T07:02:04;11.73;;;8.90;;
39094;SDS011;24840;47.508;19.376;2023-04-24T07:04:30;11.05;;;8.02;;
39094;SDS011;24840;47.508;19.376;2023-04-24T07:06:56;14.75;;;9.00;;
39094;SDS011;24840;47.508;19.376;2023-04-24T07:09:23;11.80;;;8.77;;
39094;SDS011;24840;47.508;19.376;2023-04-24T07:11:50;9.07;;;7.47;;
39094;SDS011;24840;47.508;19.376;2023-04-24T07:14:21;10.13;;;8.43;;
39094;SDS011;24840;47.508;19.376;2023-04-24T07:16:47;11.30;;;8.07;;
39094;SDS011;24840;47.508;19.376;2023-04-24T07:19:13;11.50;;;7.75;;
39094;SDS011;24840;47.508;19.376;2023-04-24T07:21:39;9.13;;;7.15;;
39094;SDS011;24840;47.508;19.376;2023-04-24T07:24:05;10.93;;;8.90;;
39094;SDS011;24840;47.508;19.376;2023-04-24T07:26:34;11.05;;;8.75;;
39094;SDS011;24840;47.508;19.376;2023-04-24T07:29:00;11.32;;;7.63;;
39094;SDS011;24840;47.508;19.376;2023-04-24T07:31:26;9.88;;;8.85;;
39094;SDS011;24840;47.508;19.376;2023-04-24T07:33:51;12.75;;;9.02;;
39094;SDS011;24840;47.508;19.376;2023-04-24T07:36:17;14.30;;;9.15;;
39094;SDS011;24840;47.508;19.376;2023-04-24T07:38:47;11.80;;;9.52;;
39094;SDS011;24840;47.508;19.376;2023-04-24T07:41:13;10.10;;;9.10;;
39094;SDS011;24840;47.508;19.376;2023-04-24T07:43:39;11.00;;;9.43;;
39094;SDS011;24840;47.508;19.376;2023-04-24T07:46:06;11.45;;;9.30;;
39094;SDS011;24840;47.508;19.376;2023-04-24T07:48:32;10.73;;;9.63;;
39094;SDS011;24840;47.508;19.376;2023-04-24T07:50:58;15.80;;;10.02;;
39094;SDS011;24840;47.508;19.376;2023-04-24T07:53:24;11.40;;;9.88;;
39094;SDS011;24840;47.508;19.376;2023-04-24T07:55:49;11.48;;;9.48;;
39094;SDS011;24840;47.508;19.376;2023-04-24T07:58:16;11.80;;;9.70;;
39094;SDS011;24840;47.508;19.376;2023-04-24T08:00:42;14.13;;;10.90;;
39094;SDS011;24840;47.508;19.376;2023-04-24T08:03:08;14.15;;;10.88;;
39094;SDS011;24840;47.508;19.376;2023-04-24T08:05:33;11.73;;;9.80;;
39094;SDS011;24840;47.508;19.376;2023-04-24T08:07:59;14.73;;;10.65;;
39094;SDS011;24840;47.508;19.376;2023-04-24T08:10:25;11.23;;;10.07;;
39094;SDS011;24840;47.508;19.376;2023-04-24T08:12:51;11.63;;;10.43;;
39094;SDS011;24840;47.508;19.376;2023-04-24T08:15:17;11.88;;;10.73;;
39094;SDS011;24840;47.508;19.376;2023-04-24T08:17:43;12.20;;;9.73;;
39094;SDS011;24840;47.508;19.376;2023-04-24T08:20:09;14.52;;;11.38;;
39094;SDS011;24840;47.508;19.376;2023-04-24T08:22:41;11.68;;;10.57;;
39094;SDS011;24840;47.508;19.376;2023-04-24T08:25:08;11.88;;;10.73;;
39094;SDS011;24840;47.508;19.376;2023-04-24T08:27:35;10.57;;;9.45;;
39094;SDS011;24840;47.508;19.376;2023-04-24T08:30:04;13.70;;;12.20;;
39094;SDS011;24840;47.508;19.376;2023-04-24T08:32:30;13.48;;;10.07;;
39094;SDS011;24840;47.508;19.376;2023-04-24T08:34:56;11.98;;;10.45;;
39094;SDS011;24840;47.508;19.376;2023-04-24T08:37:23;11.32;;;9.02;;
39094;SDS011;24840;47.508;19.376;2023-04-24T08:39:49;10.70;;;9.23;;
39094;SDS011;24840;47.508;19.376;2023-04-24T08:42:16;11.15;;;9.88;;
39094;SDS011;24840;47.508;19.376;2023-04-24T08:44:43;11.63;;;9.90;;
39094;SDS011;24840;47.508;19.376;2023-04-24T08:47:09;13.30;;;10.07;;
39094;SDS011;24840;47.508;19.376;2023-04-24T08:49:36;9.77;;;8.15;;
39094;SDS011;24840;47.508;19.376;2023-04-24T08:52:07;10.38;;;7.90;;
39094;SDS011;24840;47.508;19.376;2023-04-24T08:54:33;9.27;;;8.38;;
39094;SDS011;24840;47.508;19.376;2023-04-24T08:57:00;11.18;;;8.05;;
39094;SDS011;24840;47.508;19.376;2023-04-24T08:59:28;8.80;;;8.00;;
39094;SDS011;24840;47.508;19.376;2023-04-24T09:01:55;12.00;;;8.23;;
39094;SDS011;24840;47.508;19.376;2023-04-24T09:04:22;12.32;;;8.65;;
39094;SDS011;24840;47.508;19.376;2023-04-24T09:06:58;8.50;;;7.68;;
39094;SDS011;24840;47.508;19.376;2023-04-24T09:09:25;9.45;;;8.60;;
39094;SDS011;24840;47.508;19.376;2023-04-24T09:11:51;11.70;;;7.60;;
39094;SDS011;24840;47.508;19.376;2023-04-24T09:14:20;11.07;;;8.68;;
39094;SDS011;24840;47.508;19.376;2023-04-24T09:16:48;9.32;;;7.95;;
39094;SDS011;24840;47.508;19.376;2023-04-24T09:19:13;9.07;;;8.02;;
39094;SDS011;24840;47.508;19.376;2023-04-24T09:21:39;9.48;;;7.43;;
39094;SDS011;24840;47.508;19.376;2023-04-24T09:24:07;11.20;;;8.18;;
39094;SDS011;24840;47.508;19.376;2023-04-24T09:26:39;10.63;;;8.27;;
39094;SDS011;24840;47.508;19.376;2023-04-24T09:29:05;10.27;;;7.72;;
39094;SDS011;24840;47.508;19.376;2023-04-24T09:31:31;12.82;;;6.97;;
39094;SDS011;24840;47.508;19.376;2023-04-24T09:33:58;10.23;;;7.18;;
39094;SDS011;24840;47.508;19.376;2023-04-24T09:39:13;9.15;;;6.90;;
39094;SDS011;24840;47.508;19.376;2023-04-24T09:41:54;7.68;;;6.28;;
39094;SDS011;24840;47.508;19.376;2023-04-24T09:44:24;6.30;;;5.70;;
39094;SDS011;24840;47.508;19.376;2023-04-24T09:46:51;7.13;;;6.05;;
39094;SDS011;24840;47.508;19.376;2023-04-24T09:49:25;8.55;;;5.95;;
39094;SDS011;24840;47.508;19.376;2023-04-24T09:51:52;7.03;;;5.53;;
39094;SDS011;24840;47.508;19.376;2023-04-24T09:54:35;6.60;;;5.13;;
39094;SDS011;24840;47.508;19.376;2023-04-24T09:57:04;5.63;;;5.07;;
39094;SDS011;24840;47.508;19.376;2023-04-24T09:59:30;7.75;;;5.43;;
39094;SDS011;24840;47.508;19.376;2023-04-24T10:01:56;7.90;;;4.53;;
39094;SDS011;24840;47.508;19.376;2023-04-24T10:04:27;6.40;;;5.57;;
39094;SDS011;24840;47.508;19.376;2023-04-24T10:06:56;8.57;;;5.28;;
39094;SDS011;24840;47.508;19.376;2023-04-24T10:09:24;7.38;;;4.55;;
39094;SDS011;24840;47.508;19.376;2023-04-24T10:11:51;8.07;;;5.07;;
39094;SDS011;24840;47.508;19.376;2023-04-24T10:14:27;7.40;;;5.10;;
39094;SDS011;24840;47.508;19.376;2023-04-24T10:16:54;5.60;;;4.75;;
39094;SDS011;24840;47.508;19.376;2023-04-24T10:19:25;8.35;;;6.20;;
39094;SDS011;24840;47.508;19.376;2023-04-24T10:21:51;11.85;;;5.82;;
39094;SDS011;24840;47.508;19.376;2023-04-24T10:24:19;6.55;;;5.43;;
39094;SDS011;24840;47.508;19.376;2023-04-24T10:26:47;4.50;;;4.10;;
39094;SDS011;24840;47.508;19.376;2023-04-24T10:29:14;5.32;;;3.67;;
39094;SDS011;24840;47.508;19.376;2023-04-24T10:31:41;4.18;;;2.85;;
39094;SDS011;24840;47.508;19.376;2023-04-24T10:34:10;8.63;;;3.92;;
39094;SDS011;24840;47.508;19.376;2023-04-24T10:36:37;4.75;;;3.67;;
39094;SDS011;24840;47.508;19.376;2023-04-24T10:39:07;3.40;;;2.72;;
39094;SDS011;24840;47.508;19.376;2023-04-24T10:41:39;3.92;;;3.10;;
39094;SDS011;24840;47.508;19.376;2023-04-24T10:46:31;5.00;;;3.97;;
39094;SDS011;24840;47.508;19.376;2023-04-24T10:48:57;3.88;;;3.08;;
39094;SDS011;24840;47.508;19.376;2023-04-24T10:51:23;4.88;;;3.40;;
39094;SDS011;24840;47.508;19.376;2023-04-24T10:59:50;4.80;;;3.70;;
39094;SDS011;24840;47.508;19.376;2023-04-24T11:02:37;5.20;;;3.85;;
39094;SDS011;24840;47.508;19.376;2023-04-24T11:05:05;4.30;;;3.35;;
39094;SDS011;24840;47.508;19.376;2023-04-24T11:10:45;4.28;;;3.88;;
39094;SDS011;24840;47.508;19.376;2023-04-24T11:13:16;5.57;;;3.58;;
39094;SDS011;24840;47.508;19.376;2023-04-24T11:15:42;7.45;;;4.45;;
39094;SDS011;24840;47.508;19.376;2023-04-24T11:18:14;6.95;;;4.32;;
39094;SDS011;24840;47.508;19.376;2023-04-24T11:20:44;4.07;;;3.67;;
39094;SDS011;24840;47.508;19.376;2023-04-24T11:23:12;5.90;;;3.83;;
39094;SDS011;24840;47.508;19.376;2023-04-24T11:25:39;7.43;;;3.83;;
39094;SDS011;24840;47.508;19.376;2023-04-24T11:28:05;6.47;;;4.57;;
39094;SDS011;24840;47.508;19.376;2023-04-24T11:30:31;5.80;;;4.25;;
39094;SDS011;24840;47.508;19.376;2023-04-24T11:33:04;6.00;;;4.28;;
39094;SDS011;24840;47.508;19.376;2023-04-24T11:35:34;5.88;;;4.43;;
39094;SDS011;24840;47.508;19.376;2023-04-24T11:38:04;8.38;;;4.72;;
39094;SDS011;24840;47.508;19.376;2023-04-24T11:40:30;4.75;;;3.63;;
39094;SDS011;24840;47.508;19.376;2023-04-24T11:42:56;5.50;;;4.40;;
39094;SDS011;24840;47.508;19.376;2023-04-24T11:45:25;4.35;;;3.28;;
39094;SDS011;24840;47.508;19.376;2023-04-24T11:47:55;5.40;;;4.57;;
39094;SDS011;24840;47.508;19.376;2023-04-24T11:50:24;6.00;;;3.95;;
39094;SDS011;24840;47.508;19.376;2023-04-24T11:52:52;8.13;;;3.22;;
39094;SDS011;24840;47.508;19.376;2023-04-24T11:57:48;4.35;;;3.65;;
39094;SDS011;24840;47.508;19.376;2023-04-24T12:00:16;7.13;;;3.38;;
39094;SDS011;24840;47.508;19.376;2023-04-24T12:02:49;5.25;;;4.15;;
39094;SDS011;24840;47.508;19.376;2023-04-24T12:05:34;7.00;;;4.28;;
39094;SDS011;24840;47.508;19.376;2023-04-24T12:08:00;5.72;;;4.88;;
39094;SDS011;24840;47.508;19.376;2023-04-24T12:10:27;7.15;;;4.93;;
39094;SDS011;24840;47.508;19.376;2023-04-24T12:12:55;6.25;;;4.43;;
39094;SDS011;24840;47.508;19.376;2023-04-24T12:15:22;6.80;;;4.53;;
39094;SDS011;24840;47.508;19.376;2023-04-24T12:17:50;5.55;;;4.43;;
39094;SDS011;24840;47.508;19.376;2023-04-24T12:20:17;6.35;;;4.75;;
39094;SDS011;24840;47.508;19.376;2023-04-24T12:22:52;6.57;;;4.25;;
39094;SDS011;24840;47.508;19.376;2023-04-24T12:25:20;8.07;;;4.70;;
39094;SDS011;24840;47.508;19.376;2023-04-24T12:28:08;5.57;;;4.80;;
39094;SDS011;24840;47.508;19.376;2023-04-24T12:30:54;7.38;;;5.82;;
39094;SDS011;24840;47.508;19.376;2023-04-24T12:33:19;7.43;;;6.22;;
39094;SDS011;24840;47.508;19.376;2023-04-24T12:35:47;10.05;;;6.88;;
39094;SDS011;24840;47.508;19.376;2023-04-24T12:38:15;10.43;;;7.15;;
39094;SDS011;24840;47.508;19.376;2023-04-24T12:40:41;8.60;;;6.82;;
39094;SDS011;24840;47.508;19.376;2023-04-24T12:43:17;7.30;;;5.45;;
39094;SDS011;24840;47.508;19.376;2023-04-24T12:45:45;9.45;;;4.95;;
39094;SDS011;24840;47.508;19.376;2023-04-24T12:48:12;11.57;;;5.35;;
39094;SDS011;24840;47.508;19.376;2023-04-24T12:50:39;11.20;;;5.13;;
39094;SDS011;24840;47.508;19.376;2023-04-24T12:53:05;12.15;;;4.63;;
39094;SDS011;24840;47.508;19.376;2023-04-24T12:55:33;12.15;;;6.32;;
39094;SDS011;24840;47.508;19.376;2023-04-24T12:57:59;8.55;;;5.70;;
39094;SDS011;24840;47.508;19.376;2023-04-24T13:00:25;7.82;;;4.40;;
39094;SDS011;24840;47.508;19.376;2023-04-24T13:02:50;11.77;;;5.47;;
39094;SDS011;24840;47.508;19.376;2023-04-24T13:05:16;9.32;;;5.22;;
39094;SDS011;24840;47.508;19.376;2023-04-24T13:07:42;9.45;;;5.57;;
39094;SDS011;24840;47.508;19.376;2023-04-24T13:10:08;5.40;;;4.85;;
39094;SDS011;24840;47.508;19.376;2023-04-24T13:12:34;9.95;;;5.03;;
39094;SDS011;24840;47.508;19.376;2023-04-24T13:15:00;8.50;;;5.10;;
39094;SDS011;24840;47.508;19.376;2023-04-24T13:17:26;6.03;;;5.18;;
39094;SDS011;24840;47.508;19.376;2023-04-24T13:19:53;5.72;;;4.88;;
39094;SDS011;24840;47.508;19.376;2023-04-24T13:22:20;6.05;;;4.28;;
39094;SDS011;24840;47.508;19.376;2023-04-24T13:24:46;4.57;;;4.13;;
39094;SDS011;24840;47.508;19.376;2023-04-24T13:27:14;4.78;;;3.53;;
39094;SDS011;24840;47.508;19.376;2023-04-24T13:29:40;4.72;;;3.15;;
39094;SDS011;24840;47.508;19.376;2023-04-24T13:32:07;4.35;;;3.10;;
39094;SDS011;24840;47.508;19.376;2023-04-24T13:34:33;3.50;;;3.17;;
39094;SDS011;24840;47.508;19.376;2023-04-24T13:37:02;4.93;;;3.28;;
39094;SDS011;24840;47.508;19.376;2023-04-24T13:39:32;3.38;;;2.65;;
39094;SDS011;24840;47.508;19.376;2023-04-24T13:41:58;4.50;;;2.92;;
39094;SDS011;24840;47.508;19.376;2023-04-24T13:44:24;7.20;;;3.47;;
39094;SDS011;24840;47.508;19.376;2023-04-24T13:46:51;6.20;;;3.72;;
39094;SDS011;24840;47.508;19.376;2023-04-24T13:49:19;3.40;;;3.10;;
39094;SDS011;24840;47.508;19.376;2023-04-24T13:51:45;3.78;;;2.80;;
39094;SDS011;24840;47.508;19.376;2023-04-24T13:54:14;3.30;;;2.72;;
39094;SDS011;24840;47.508;19.376;2023-04-24T13:56:40;4.25;;;3.00;;
39094;SDS011;24840;47.508;19.376;2023-04-24T13:59:05;4.63;;;2.67;;
39094;SDS011;24840;47.508;19.376;2023-04-24T14:01:32;5.13;;;2.35;;
39094;SDS011;24840;47.508;19.376;2023-04-24T14:03:57;3.10;;;2.60;;
39094;SDS011;24840;47.508;19.376;2023-04-24T14:06:23;5.13;;;2.90;;
39094;SDS011;24840;47.508;19.376;2023-04-24T14:08:49;5.65;;;4.45;;
39094;SDS011;24840;47.508;19.376;2023-04-24T14:11:16;4.68;;;3.10;;
39094;SDS011;24840;47.508;19.376;2023-04-24T14:13:42;3.45;;;3.15;;
39094;SDS011;24840;47.508;19.376;2023-04-24T14:16:09;4.13;;;2.80;;
39094;SDS011;24840;47.508;19.376;2023-04-24T14:18:35;3.72;;;2.78;;
39094;SDS011;24840;47.508;19.376;2023-04-24T14:21:01;4.18;;;3.75;;
39094;SDS011;24840;47.508;19.376;2023-04-24T14:23:28;10.93;;;3.40;;
39094;SDS011;24840;47.508;19.376;2023-04-24T14:25:53;4.38;;;3.63;;
39094;SDS011;24840;47.508;19.376;2023-04-24T14:28:19;5.10;;;3.05;;
39094;SDS011;24840;47.508;19.376;2023-04-24T14:30:46;5.10;;;3.92;;
39094;SDS011;24840;47.508;19.376;2023-04-24T14:33:12;5.47;;;3.08;;
39094;SDS011;24840;47.508;19.376;2023-04-24T14:35:39;5.35;;;3.55;;
39094;SDS011;24840;47.508;19.376;2023-04-24T14:38:06;4.47;;;3.22;;
39094;SDS011;24840;47.508;19.376;2023-04-24T14:40:32;6.07;;;3.70;;